Time;durP1;ratioP1;P1;durP2;ratioP2;P2;SDS_P1;SDS_P2;PMS_P1;PMS_P2;Temp;Humidity;BMP_temperature;BMP_pressure;BME280_temperature;BME280_humidity;BME280_pressure;Samples;Min_cycle;Max_cycle;Signal;HPM_P1;HPM_P2
2022/01/22 00:01:43;;;;;;;24.77;12.02;;;;;;;5.94;100.00;102313.38;8297307;28;20042;-63
2022/01/22 00:05:45;;;;;;;40.50;12.48;;;;;;;5.92;100.00;102309.03;8300331;28;20621;-63
2022/01/22 00:09:51;;;;;;;32.08;13.32;;;;;;;5.86;100.00;102317.34;8318360;28;20099;-63
2022/01/22 00:14:52;;;;;;;27.92;14.15;;;;;;;5.88;100.00;102305.59;8344855;28;20511;-63
2022/01/22 00:18:12;;;;;;;29.30;14.30;;;;;;;5.82;100.00;102321.09;8344938;28;20041;-63
2022/01/22 00:22:12;;;;;;;24.70;12.85;;;;;;;5.84;100.00;102313.84;8364758;28;20044;-63
2022/01/22 00:26:13;;;;;;;33.55;14.85;;;;;;;5.92;100.00;102311.72;8365336;28;20516;-63
2022/01/22 00:30:17;;;;;;;29.20;13.70;;;;;;;5.76;100.00;102310.59;8347954;28;20076;-63
2022/01/22 00:34:17;;;;;;;;;;;;;;;5.73;100.00;102308.03;8365130;28;20037;-63
2022/01/22 00:38:18;;;;;;;32.03;13.37;;;;;;;5.72;100.00;102303.63;8385672;28;20003;-63
2022/01/22 00:42:21;;;;;;;33.65;13.27;;;;;;;5.84;100.00;102305.81;8394782;28;20774;-63
2022/01/22 00:46:21;;;;;;;37.40;14.23;;;;;;;5.82;100.00;102311.25;8397234;28;20140;-63
2022/01/22 00:50:24;;;;;;;31.67;13.95;;;;;;;5.85;100.00;102310.22;8367970;28;20449;-63
2022/01/22 00:54:24;;;;;;;30.10;13.20;;;;;;;5.92;100.00;102317.09;8346516;28;20036;-63
2022/01/22 00:58:24;;;;;;;34.95;13.57;;;;;;;5.92;100.00;102317.09;8364286;28;20091;-63
2022/01/22 01:02:25;;;;;;;36.28;14.52;;;;;;;5.83;100.00;102317.50;8358007;28;20068;-63
2022/01/22 01:06:25;;;;;;;33.33;15.63;;;;;;;5.89;100.00;102309.16;8348496;28;20101;-63
2022/01/22 01:10:26;;;;;;;36.95;15.95;;;;;;;5.85;100.00;102307.53;8352333;28;20099;-64
2022/01/22 01:14:34;;;;;;;36.92;17.13;;;;;;;5.84;100.00;102311.16;8365313;28;20128;-64
2022/01/22 01:32:53;;;;;;;42.95;20.05;;;;;;;5.86;100.00;102309.31;8329378;28;20509;-64
2022/01/22 01:35:56;;;;;;;43.15;19.55;;;;;;;5.81;100.00;102303.22;8332208;28;20053;-64
2022/01/22 01:40:01;;;;;;;43.38;21.50;;;;;;;5.77;100.00;102315.03;8395486;28;20159;-64
2022/01/22 01:44:02;;;;;;;44.35;20.58;;;;;;;5.72;100.00;102303.63;8394397;28;20469;-64
2022/01/22 01:48:08;;;;;;;46.45;20.98;;;;;;;5.62;100.00;102302.28;8387723;28;20493;-64
2022/01/22 01:52:15;;;;;;;42.60;20.70;;;;;;;5.62;100.00;102305.81;8357478;28;20124;-64
2022/01/22 01:57:30;;;;;;;56.50;21.45;;;;;;;5.64;100.00;102305.75;8344856;28;20537;-64
2022/01/22 02:00:35;;;;;;;52.88;23.00;;;;;;;5.61;100.00;102306.75;8353727;28;20043;-64
2022/01/22 02:04:36;;;;;;;47.47;22.08;;;;;;;5.58;100.00;102300.66;8344968;28;20037;-64
2022/01/22 02:08:37;;;;;;;49.13;23.35;;;;;;;5.54;100.00;102294.56;8363560;28;20029;-64
2022/01/22 02:13:26;;;;;;;52.15;24.20;;;;;;;5.57;100.00;102293.53;8355482;28;20033;-64
2022/01/22 02:25:39;;;;;;;54.97;25.35;;;;;;;5.55;100.00;102290.06;8365010;28;20071;-64
2022/01/22 02:29:39;;;;;;;51.63;24.35;;;;;;;5.59;100.00;102292.56;8352530;28;20040;-64
2022/01/22 02:33:50;;;;;;;52.13;25.00;;;;;;;5.63;100.00;102288.78;8373479;28;20043;-64
2022/01/22 02:37:58;;;;;;;57.22;27.45;;;;;;;5.65;100.00;102289.59;8375320;28;20052;-64
2022/01/22 02:41:58;;;;;;;57.10;25.73;;;;;;;5.64;100.00;102295.00;8379267;28;20033;-64
2022/01/22 02:46:00;;;;;;;54.80;26.67;;;;;;;5.65;100.00;102286.03;8341104;28;20052;-64
2022/01/22 02:50:01;;;;;;;63.65;28.55;;;;;;;5.66;100.00;102271.69;8357846;28;20032;-64
2022/01/22 02:54:02;;;;;;;54.90;27.42;;;;;;;5.64;100.00;102273.53;8356867;28;20029;-64
2022/01/22 02:58:03;;;;;;;57.13;28.85;;;;;;;5.71;100.00;102275.03;8373239;28;20083;-64
2022/01/22 03:02:04;;;;;;;65.75;29.50;;;;;;;5.76;100.00;102283.75;8357164;28;20028;-64
2022/01/22 03:06:05;;;;;;;60.28;27.88;;;;;;;5.73;100.00;102273.16;8357182;28;20045;-64
2022/01/22 03:10:08;;;;;;;53.85;26.58;;;;;;;5.92;100.00;102271.47;8358301;28;20040;-64
2022/01/22 03:14:50;;;;;;;58.88;29.38;;;;;;;5.88;100.00;102272.50;8357640;28;20385;-64
2022/01/22 03:19:03;;;;;;;57.47;25.27;;;;;;;5.93;100.00;102271.38;8357068;28;20460;-64
2022/01/22 03:27:24;;;;;;;54.30;26.17;;;;;;;6.03;100.00;102277.19;8358841;28;20044;-64
2022/01/22 03:31:12;;;;;;;54.88;25.42;;;;;;;6.04;100.00;102270.91;8360720;28;20040;-64
2022/01/22 03:39:32;;;;;;;57.65;25.08;;;;;;;5.92;100.00;102263.41;8319146;28;20411;-63
2022/01/22 03:43:33;;;;;;;60.15;27.70;;;;;;;5.97;100.00;102273.00;8321210;28;20044;-63
2022/01/22 03:47:33;;;;;;;60.35;27.13;;;;;;;5.93;100.00;102270.50;8320386;28;20030;-63
2022/01/22 03:51:33;;;;;;;61.70;27.63;;;;;;;5.87;100.00;102266.28;8320028;28;20030;-63
2022/01/22 03:55:49;;;;;;;58.22;28.88;;;;;;;5.86;100.00;102282.47;8320185;28;20104;-63
2022/01/22 03:59:52;;;;;;;63.47;28.52;;;;;;;5.86;100.00;102280.63;8319533;28;20068;-63
2022/01/22 04:03:59;;;;;;;68.53;27.50;;;;;;;5.89;100.00;102291.22;8308385;28;20091;-63
2022/01/22 04:08:10;;;;;;;66.28;28.70;;;;;;;5.87;100.00;102286.88;8300297;28;20046;-63
2022/01/22 04:12:14;;;;;;;63.33;29.30;;;;;;;5.82;100.00;102288.88;8294706;28;20121;-63
2022/01/22 04:16:15;;;;;;;;;;;;;;;5.86;100.00;102283.31;8286694;28;20057;-63
2022/01/22 04:24:55;;;;;;;63.80;29.50;;;;;;;5.87;100.00;102287.75;8278673;28;20553;-63
2022/01/22 04:28:56;;;;;;;65.97;29.95;;;;;;;5.95;100.00;102284.75;8278898;28;20034;-63
2022/01/22 04:32:57;;;;;;;65.70;29.50;;;;;;;5.92;100.00;102291.09;8286403;28;20393;-63
2022/01/22 04:36:57;;;;;;;67.63;31.38;;;;;;;5.85;100.00;102288.75;8285253;28;20042;-63
2022/01/22 04:40:59;;;;;;;69.63;32.08;;;;;;;5.82;100.00;102289.75;8285158;28;20410;-63
2022/01/22 04:45:06;;;;;;;58.33;29.08;;;;;;;5.87;100.00;102287.75;8285455;28;20084;-63
2022/01/22 04:49:12;;;;;;;61.42;29.77;;;;;;;5.89;100.00;102301.13;8273731;28;20038;-63
2022/01/22 04:57:17;;;;;;;67.15;30.27;;;;;;;5.87;100.00;102302.97;8277384;28;20034;-63
2022/01/22 05:01:17;;;;;;;57.65;27.63;;;;;;;5.90;100.00;102292.13;8263635;28;20046;-63
2022/01/22 05:05:18;;;;;;;69.05;28.90;;;;;;;5.86;100.00;102286.00;8263683;28;20048;-63
2022/01/22 05:09:18;;;;;;;64.70;29.33;;;;;;;5.84;100.00;102289.69;8263780;28;20490;-63
2022/01/22 05:13:19;;;;;;;60.33;29.98;;;;;;;5.86;100.00;102285.16;8257404;28;20054;-63
2022/01/22 05:17:20;;;;;;;71.80;29.08;;;;;;;5.85;100.00;102294.13;8250460;28;20093;-65
2022/01/22 05:21:22;;;;;;;68.80;29.67;;;;;;;5.88;100.00;102285.94;8252229;28;20046;-63
2022/01/22 05:25:33;;;;;;;58.17;29.40;;;;;;;5.90;100.00;102292.13;8246972;28;20506;-63
2022/01/22 05:30:12;;;;;;;68.00;29.10;;;;;;;5.94;100.00;102285.66;8251965;28;20104;-63
2022/01/22 05:38:14;;;;;;;67.63;28.27;;;;;;;5.94;100.00;102297.28;8262100;28;20037;-64
2022/01/22 05:42:15;;;;;;;60.92;28.95;;;;;;;5.93;100.00;102292.88;8263278;28;20505;-64
2022/01/22 05:46:15;;;;;;;59.03;29.33;;;;;;;5.94;100.00;102291.03;8262529;28;20060;-64
2022/01/22 05:55:06;;;;;;;78.35;29.58;;;;;;;6.01;100.00;102290.69;8333967;27;20395;-63
2022/01/22 05:59:37;;;;;;;64.20;30.30;;;;;;;6.01;100.00;102305.94;8324216;28;20072;-63
2022/01/22 06:03:25;;;;;;;69.80;31.13;;;;;;;6.03;100.00;102312.09;8325887;28;20030;-63
2022/01/22 06:07:25;;;;;;;76.90;33.72;;;;;;;6.08;100.00;102299.34;8349078;28;20041;-63
2022/01/22 06:11:29;;;;;;;69.45;30.40;;;;;;;6.09;100.00;102309.16;8351288;28;20473;-63
2022/01/22 06:15:29;;;;;;;65.93;31.60;;;;;;;6.11;100.00;102307.28;8318238;28;20038;-63
2022/01/22 06:19:30;;;;;;;72.50;33.33;;;;;;;6.05;100.00;102310.22;8319079;28;20040;-63
2022/01/22 06:23:31;;;;;;;67.95;33.70;;;;;;;6.14;100.00;102311.63;8319175;28;20156;-63
2022/01/22 06:27:31;;;;;;;69.13;32.58;;;;;;;6.15;100.00;102319.59;8319759;28;20488;-63
2022/01/22 06:31:32;;;;;;;71.40;34.10;;;;;;;6.18;100.00;102323.97;8319536;28;20037;-63
2022/01/22 06:35:32;;;;;;;74.90;33.90;;;;;;;6.19;100.00;102315.84;8340867;28;20037;-63
2022/01/22 06:39:51;;;;;;;69.60;33.95;;;;;;;6.13;100.00;102321.47;8319952;28;20099;-63
2022/01/22 06:43:51;;;;;;;81.10;34.17;;;;;;;6.14;100.00;102328.63;8319615;28;20594;-63
2022/01/22 06:47:52;;;;;;;78.03;34.63;;;;;;;6.10;100.00;102320.75;8329043;28;20393;-63
2022/01/22 06:51:54;;;;;;;88.47;36.58;;;;;;;6.10;100.00;102332.34;8320483;28;20045;-63
2022/01/22 06:55:59;;;;;;;82.10;36.70;;;;;;;6.08;100.00;102343.16;8334046;28;20032;-63
2022/01/22 06:59:59;;;;;;;;;;;;;;;6.11;100.00;102350.25;8352315;28;20040;-63
2022/01/22 07:03:59;;;;;;;80.13;35.00;;;;;;;6.12;100.00;102356.47;8320143;28;19913;-63
2022/01/22 07:08:00;;;;;;;95.13;37.38;;;;;;;6.15;100.00;102356.31;8295096;28;20125;-63
2022/01/22 07:12:00;;;;;;;82.63;37.22;;;;;;;6.13;100.00;102359.06;8295459;28;20046;-63
2022/01/22 07:16:00;;;;;;;84.50;36.80;;;;;;;6.12;100.00;102351.97;8300349;28;20103;-63
2022/01/22 07:20:04;;;;;;;87.32;38.13;;;;;;;6.15;100.00;102356.31;8304517;28;20069;-64
2022/01/22 07:28:17;;;;;;;101.25;39.20;;;;;;;6.13;100.00;102369.81;8357339;27;20475;-62
2022/01/22 07:32:28;;;;;;;84.22;37.42;;;;;;;6.09;100.00;102362.84;8353891;28;20052;-62
2022/01/22 07:36:28;;;;;;;85.15;40.00;;;;;;;6.01;100.00;102365.88;8352514;28;20070;-62
2022/01/22 07:40:29;;;;;;;91.10;39.15;;;;;;;5.98;100.00;102371.34;8332216;28;20038;-63
2022/01/22 07:44:30;;;;;;;92.45;39.83;;;;;;;5.95;100.00;102376.88;8318563;28;20030;-62
2022/01/22 07:48:30;;;;;;;93.80;40.53;;;;;;;5.94;100.00;102376.94;8330311;28;20745;-62
2022/01/22 07:52:30;;;;;;;98.13;38.78;;;;;;;5.98;100.00;102375.88;8337221;28;20183;-63
2022/01/22 07:56:31;;;;;;;101.95;41.67;;;;;;;6.06;100.00;102384.44;8346976;28;20033;-62
2022/01/22 08:00:31;;;;;;;94.75;39.20;;;;;;;6.17;100.00;102387.56;8353134;28;20037;-63
2022/01/22 08:04:33;;;;;;;93.38;38.75;;;;;;;6.23;100.00;102376.56;8340621;28;20037;-63
2022/01/22 08:08:34;;;;;;;88.55;36.95;;;;;;;6.27;100.00;102377.25;8321445;28;20129;-63
2022/01/22 08:12:37;;;;;;;86.45;38.15;;;;;;;6.30;100.00;102372.66;8330788;28;20064;-63
2022/01/22 08:16:38;;;;;;;90.40;37.70;;;;;;;6.38;100.00;102381.25;8348647;28;20033;-63
2022/01/22 08:20:38;;;;;;;94.22;37.80;;;;;;;6.45;100.00;102381.81;8352619;28;20056;-63
2022/01/22 08:24:39;;;;;;;89.60;39.22;;;;;;;6.48;100.00;102387.06;8343430;28;20037;-63
2022/01/22 08:28:57;;;;;;;92.20;37.60;;;;;;;6.47;100.00;102396.97;8326737;28;20048;-63
2022/01/22 08:37:18;;;;;;;84.70;36.58;;;;;;;6.56;100.00;102404.56;8307819;28;20049;-62
2022/01/22 08:41:19;;;;;;;96.10;39.50;;;;;;;6.55;100.00;102404.63;8302566;28;20742;-63
2022/01/22 08:45:19;;;;;;;89.97;39.95;;;;;;;6.55;100.00;102405.53;8287444;28;20057;-62
2022/01/22 08:49:19;;;;;;;98.30;40.45;;;;;;;6.46;100.00;102405.94;8280154;28;20317;-63
2022/01/22 08:53:20;;;;;;;100.25;41.38;;;;;;;6.50;100.00;102412.94;8288930;28;20104;-63
2022/01/22 08:57:20;;;;;;;103.80;41.55;;;;;;;6.51;100.00;102414.66;8296600;28;20093;-63
2022/01/22 09:01:21;;;;;;;95.32;39.38;;;;;;;6.53;100.00;102407.44;8308765;28;20576;-63
2022/01/22 09:05:30;;;;;;;100.95;40.35;;;;;;;6.58;100.00;102409.88;8312913;28;20691;-63
2022/01/22 09:09:31;;;;;;;97.65;38.67;;;;;;;6.61;100.00;102416.00;8304296;28;20045;-63
2022/01/22 09:13:31;;;;;;;100.85;41.03;;;;;;;6.63;100.00;102414.13;8310350;28;20164;-63
2022/01/22 09:17:33;;;;;;;87.88;37.75;;;;;;;6.69;100.00;102424.59;8298883;28;20403;-63
2022/01/22 09:21:35;;;;;;;92.35;38.55;;;;;;;6.72;100.00;102427.16;8291810;28;20049;-63
2022/01/22 09:25:36;;;;;;;86.20;34.35;;;;;;;6.82;100.00;102420.41;8299797;28;25383;-63
2022/01/22 09:29:36;;;;;;;79.72;34.10;;;;;;;6.85;100.00;102420.25;8299926;28;20524;-63
2022/01/22 09:33:38;;;;;;;73.68;32.70;;;;;;;6.88;100.00;102425.50;8309364;28;20495;-63
2022/01/22 09:37:39;;;;;;;84.90;33.30;;;;;;;6.85;100.00;102420.25;8316636;28;20408;-63
2022/01/22 09:41:39;;;;;;;78.43;34.53;;;;;;;6.93;100.00;102418.09;8298603;28;20060;-63
2022/01/22 09:45:40;;;;;;;79.15;33.50;;;;;;;6.97;100.00;102427.75;8296496;28;20125;-63
2022/01/22 09:49:41;;;;;;;75.72;33.17;;;;;;;7.00;100.00;102427.63;8315969;28;20312;-63
2022/01/22 09:53:43;;;;;;;74.50;31.42;;;;;;;7.01;100.00;102431.16;8304348;28;20045;-63
2022/01/22 09:57:44;;;;;;;77.13;32.80;;;;;;;7.02;100.00;102423.03;8297511;28;20037;-63
2022/01/22 10:01:45;;;;;;;82.40;34.38;;;;;;;7.00;100.00;102426.75;8309160;28;20038;-63
2022/01/22 10:05:47;;;;;;;83.65;34.72;;;;;;;6.97;100.00;102438.53;8298558;28;20104;-63
2022/01/22 10:10:05;;;;;;;80.65;35.65;;;;;;;6.94;100.00;102429.72;8293412;28;20044;-63
2022/01/22 10:14:07;;;;;;;85.43;35.35;;;;;;;6.96;100.00;102434.09;8299546;28;20420;-63
2022/01/22 10:18:08;;;;;;;105.05;39.90;;;;;;;7.04;100.00;102436.41;8303664;28;20050;-63
2022/01/22 10:22:08;;;;;;;108.53;38.65;;;;;;;7.13;100.00;102439.53;8299942;28;20144;-63
2022/01/22 10:26:14;;;;;;;97.57;36.97;;;;;;;7.09;100.00;102429.88;8294727;28;20049;-63
2022/01/22 10:30:17;;;;;;;90.43;36.22;;;;;;;7.07;100.00;102437.13;8294707;28;20409;-63
2022/01/22 10:34:17;;;;;;;92.70;38.17;;;;;;;7.06;100.00;102424.66;8295959;28;20339;-63
2022/01/22 10:38:18;;;;;;;94.32;35.92;;;;;;;7.07;100.00;102423.69;8294859;28;20048;-63
2022/01/22 10:42:21;;;;;;;93.38;36.05;;;;;;;7.07;100.00;102429.06;8292010;28;20124;-63
2022/01/22 10:46:42;;;;;;;88.47;35.17;;;;;;;7.07;100.00;102418.31;8296629;28;20053;-63
2022/01/22 10:50:43;;;;;;;83.45;34.75;;;;;;;7.09;100.00;102424.50;8294768;28;20072;-64
2022/01/22 10:54:46;;;;;;;84.45;34.85;;;;;;;7.12;100.00;102428.84;8296052;28;20057;-63
2022/01/22 10:58:52;;;;;;;92.28;35.05;;;;;;;7.22;100.00;102430.16;8293710;28;20120;-63
2022/01/22 11:02:52;;;;;;;86.78;34.42;;;;;;;7.34;100.00;102416.13;8298436;28;20523;-63
2022/01/22 11:07:04;;;;;;;71.82;30.92;;;;;;;7.39;100.00;102423.06;8295910;28;20406;-66
2022/01/22 11:11:04;;;;;;;69.22;31.58;;;;;;;7.55;100.00;102424.03;8298324;28;20462;-63
2022/01/22 11:15:06;;;;;;;71.32;30.27;;;;;;;7.62;100.00;102409.34;8301261;28;20073;-63
2022/01/22 11:19:09;;;;;;;70.53;31.42;;;;;;;7.82;100.00;102421.81;8292640;28;20041;-63
2022/01/22 11:23:09;;;;;;;64.00;29.13;;;;;;;7.73;100.00;102416.88;8290471;28;20237;-63
2022/01/22 11:27:13;;;;;;;64.32;27.48;;;;;;;7.65;100.00;102411.88;8307270;28;20045;-63
2022/01/22 11:31:16;;;;;;;66.32;28.27;;;;;;;7.71;100.00;102408.00;8287862;28;20483;-63
2022/01/22 11:35:22;;;;;;;72.50;29.75;;;;;;;7.70;100.00;102412.53;8295918;28;20060;-63
2022/01/22 11:39:25;;;;;;;62.30;27.58;;;;;;;7.67;100.00;102407.28;8313039;28;20042;-63
2022/01/22 11:43:52;;;;;;;59.75;28.98;;;;;;;7.65;100.00;102409.19;8315943;28;20117;-63
2022/01/22 11:48:15;;;;;;;72.07;29.40;;;;;;;7.64;100.00;102407.44;8297441;28;20038;-63
2022/01/22 11:52:23;;;;;;;66.60;29.83;;;;;;;7.54;100.00;102411.50;8298207;28;20117;-63
2022/01/22 11:56:28;;;;;;;81.05;30.80;;;;;;;7.49;100.00;102407.31;8287558;28;20049;-63
2022/01/22 12:00:29;;;;;;;;;;;;;;;7.45;100.00;102413.81;8302966;28;20052;-63
2022/01/22 12:04:46;;;;;;;74.97;31.45;;;;;;;7.43;100.00;102419.25;8291096;28;19921;-63
2022/01/22 12:09:09;;;;;;;80.15;31.80;;;;;;;7.46;100.00;102413.72;8294017;28;20100;-63
2022/01/22 12:14:33;;;;;;;89.70;35.22;;;;;;;7.42;100.00;102412.13;8314811;28;20044;-63
2022/01/22 12:18:00;;;;;;;76.57;32.50;;;;;;;7.41;100.00;102404.16;8303748;28;20056;-63
2022/01/22 12:22:00;;;;;;;78.47;31.13;;;;;;;7.45;100.00;102412.00;8311454;28;20042;-63
2022/01/22 12:26:03;;;;;;;82.22;34.03;;;;;;;7.50;100.00;102417.13;8316761;28;20041;-63
2022/01/22 12:30:04;;;;;;;81.20;33.55;;;;;;;7.54;100.00;102416.91;8306910;28;20072;-63
2022/01/22 12:34:04;;;;;;;74.07;33.38;;;;;;;7.65;100.00;102409.19;8297623;28;20044;-63
2022/01/22 12:38:32;;;;;;;72.00;32.25;;;;;;;7.62;100.00;102414.72;8300865;28;20513;-63
2022/01/22 12:43:01;;;;;;;60.78;29.13;;;;;;;7.70;100.00;102409.84;8291893;28;20050;-63
2022/01/22 12:47:06;;;;;;;58.17;26.70;;;;;;;7.69;100.00;102407.22;8301009;28;20120;-63
2022/01/22 12:51:08;;;;;;;63.60;28.17;;;;;;;7.71;100.00;102408.00;8305719;28;20249;-63
2022/01/22 12:55:19;;;;;;;65.43;29.65;;;;;;;7.72;100.00;102404.38;8316316;28;20041;-63
2022/01/22 12:59:19;;;;;;;63.90;28.98;;;;;;;7.83;100.00;102410.06;8300019;28;20439;-63
2022/01/22 13:03:40;;;;;;;61.28;29.95;;;;;;;7.81;100.00;102409.31;8300986;28;20060;-63
2022/01/22 13:07:51;;;;;;;64.40;29.65;;;;;;;7.78;100.00;102404.91;8312394;28;20042;-63
2022/01/22 13:11:53;;;;;;;64.53;30.30;;;;;;;7.82;100.00;102411.91;8291016;28;20544;-63
2022/01/22 13:16:13;;;;;;;63.15;29.67;;;;;;;7.82;100.00;102405.66;8310155;28;20045;-63
2022/01/22 13:20:19;;;;;;;57.65;27.77;;;;;;;7.80;100.00;102413.81;8300306;28;20046;-63
2022/01/22 13:24:23;;;;;;;67.93;28.90;;;;;;;7.84;100.00;102410.00;8296628;28;20034;-63
2022/01/22 13:28:28;;;;;;;61.67;29.13;;;;;;;7.85;100.00;102417.16;8294815;28;20045;-63
2022/01/22 13:32:57;;;;;;;60.88;28.02;;;;;;;7.78;100.00;102404.91;8302925;28;20162;-63
2022/01/22 13:37:40;;;;;;;67.68;30.48;;;;;;;7.77;100.00;102407.69;8297390;28;20030;-63
2022/01/22 13:45:06;;;;;;;65.47;29.08;;;;;;;7.83;100.00;102402.00;8300626;28;20052;-63
2022/01/22 13:50:05;;;;;;;64.68;30.15;;;;;;;7.81;100.00;102412.00;8401150;27;20396;-64
2022/01/22 13:54:05;;;;;;;73.72;32.40;;;;;;;7.78;100.00;102410.31;8333045;28;20044;-64
2022/01/22 13:58:17;;;;;;;70.57;33.67;;;;;;;7.75;100.00;102418.53;8329742;28;20205;-64
2022/01/22 14:06:36;;;;;;;90.72;37.72;;;;;;;7.73;100.00;102412.38;8319807;27;20511;-63
2022/01/22 14:10:40;;;;;;;82.28;36.90;;;;;;;7.66;100.00;102416.28;8327439;28;20506;-63
2022/01/22 14:15:11;;;;;;;95.37;39.30;;;;;;;7.66;100.00;102419.00;8350795;28;20041;-63
2022/01/22 14:19:27;;;;;;;93.30;37.05;;;;;;;7.61;100.00;102421.06;8339323;28;20037;-63
2022/01/22 14:27:40;;;;;;;82.40;36.70;;;;;;;7.59;100.00;102406.78;8320080;27;20415;-63
2022/01/22 14:36:02;;;;;;;82.18;37.15;;;;;;;7.62;100.00;102403.94;8335486;27;20716;-63
2022/01/22 14:44:26;;;;;;;89.75;37.63;;;;;;;7.60;100.00;102411.22;8400053;27;20415;-64
2022/01/22 14:48:27;;;;;;;77.30;37.65;;;;;;;7.62;100.00;102403.94;8363394;28;20040;-64
2022/01/22 14:52:28;;;;;;;78.15;36.17;;;;;;;7.65;100.00;102403.78;8377439;28;20039;-64
2022/01/22 14:56:30;;;;;;;87.93;39.05;;;;;;;7.59;100.00;102404.09;8370078;28;20139;-64
2022/01/22 15:00:31;;;;;;;83.18;37.00;;;;;;;7.58;100.00;102405.06;8382323;28;20037;-64
2022/01/22 15:04:32;;;;;;;88.93;37.95;;;;;;;7.53;100.00;102404.41;8384236;28;20045;-64
2022/01/22 15:08:33;;;;;;;83.22;39.15;;;;;;;7.54;100.00;102406.13;8374628;28;20124;-64
2022/01/22 15:12:35;;;;;;;94.32;39.83;;;;;;;7.49;100.00;102407.31;8368052;28;20096;-64
2022/01/22 15:16:43;;;;;;;89.82;40.75;;;;;;;7.46;100.00;102411.03;8340904;28;20617;-64
2022/01/22 15:20:44;;;;;;;90.75;39.83;;;;;;;7.47;100.00;102419.97;8364571;28;20532;-64
2022/01/22 15:24:49;;;;;;;96.47;40.63;;;;;;;7.41;100.00;102415.75;8343554;28;20465;-64
2022/01/22 15:28:50;;;;;;;91.15;39.20;;;;;;;7.43;100.00;102419.25;8347917;28;20504;-64
2022/01/22 15:33:00;;;;;;;75.05;35.17;;;;;;;7.40;100.00;102424.78;8348519;28;20454;-64
2022/01/22 15:37:04;;;;;;;73.47;32.13;;;;;;;7.45;100.00;102425.44;8334938;28;20036;-64
2022/01/22 15:41:04;;;;;;;73.55;32.63;;;;;;;7.44;100.00;102420.13;8342321;28;20060;-64
2022/01/22 15:45:05;;;;;;;72.85;33.75;;;;;;;7.45;100.00;102427.25;8332058;28;20066;-64
2022/01/22 15:49:06;;;;;;;68.90;32.00;;;;;;;7.44;100.00;102423.69;8347201;28;20030;-64
2022/01/22 15:53:07;;;;;;;71.50;33.08;;;;;;;7.42;100.00;102430.97;8329897;28;20137;-64
2022/01/22 15:57:09;;;;;;;75.82;31.23;;;;;;;7.37;100.00;102434.81;8323266;28;20045;-63
2022/01/22 16:01:11;;;;;;;69.53;31.73;;;;;;;7.34;100.00;102446.59;8326437;28;20056;-63
2022/01/22 16:05:12;;;;;;;71.45;30.77;;;;;;;7.37;100.00;102441.06;8330401;28;20072;-63
2022/01/22 16:09:16;;;;;;;72.68;29.92;;;;;;;7.35;100.00;102436.72;8326218;28;20049;-63
2022/01/22 16:13:18;;;;;;;67.55;30.65;;;;;;;7.35;100.00;102437.56;8306576;28;20477;-63
2022/01/22 16:17:21;;;;;;;68.20;31.48;;;;;;;7.34;100.00;102443.91;8318279;28;20053;-63
2022/01/22 16:21:21;;;;;;;70.70;31.13;;;;;;;7.30;100.00;102446.81;8317195;28;20044;-63
2022/01/22 16:25:22;;;;;;;66.57;32.22;;;;;;;7.26;100.00;102438.00;8318585;28;20050;-63
2022/01/22 16:29:25;;;;;;;82.68;33.80;;;;;;;7.22;100.00;102446.31;8322636;28;20037;-63
2022/01/22 16:33:26;;;;;;;83.57;33.95;;;;;;;7.20;100.00;102443.69;8303276;28;20034;-63
2022/01/22 16:37:27;;;;;;;85.63;35.53;;;;;;;7.17;100.00;102443.81;8317274;28;20079;-63
2022/01/22 16:41:27;;;;;;;86.93;35.40;;;;;;;7.16;100.00;102442.09;8317247;28;20045;-63
2022/01/22 16:54:41;;;;;;;84.47;36.03;;;;;;;7.15;100.00;102445.72;8304846;28;20038;-63
2022/01/22 16:58:32;;;;;;;93.07;37.63;;;;;;;7.10;100.00;102442.38;8301583;28;20037;-63
2022/01/22 17:02:36;;;;;;;101.80;39.30;;;;;;;7.16;100.00;102458.22;8306398;28;20484;-63
2022/01/22 17:06:37;;;;;;;100.25;40.88;;;;;;;7.10;100.00;102447.75;8297124;28;20057;-63
2022/01/22 17:11:00;;;;;;;104.20;42.63;;;;;;;7.11;100.00;102454.88;8304501;28;20042;-63
2022/01/22 17:14:58;;;;;;;104.57;43.95;;;;;;;7.10;100.00;102458.50;8322264;28;20073;-63
2022/01/22 17:18:58;;;;;;;109.45;42.08;;;;;;;6.97;100.00;102457.34;8339537;28;20041;-63
2022/01/22 17:22:59;;;;;;;105.43;42.83;;;;;;;7.04;100.00;102466.88;8344378;28;20095;-63
2022/01/22 17:26:59;;;;;;;98.10;41.53;;;;;;;7.02;100.00;102460.66;8338927;28;20046;-63
2022/01/22 17:31:00;;;;;;;101.53;42.22;;;;;;;7.03;100.00;102465.13;8340986;28;20438;-63
2022/01/22 17:35:00;;;;;;;105.28;41.38;;;;;;;6.99;100.00;102460.84;8340871;28;20303;-63
2022/01/22 17:39:01;;;;;;;99.95;39.22;;;;;;;6.98;100.00;102459.06;8342963;28;20041;-63
2022/01/22 17:43:04;;;;;;;102.22;41.10;;;;;;;6.99;100.00;102476.97;8342754;28;20428;-63
2022/01/22 17:47:05;;;;;;;97.07;38.85;;;;;;;6.96;100.00;102460.97;8335814;28;20041;-63
2022/01/22 17:51:05;;;;;;;101.05;38.28;;;;;;;6.98;100.00;102475.22;8340986;28;20048;-63
2022/01/22 17:55:08;;;;;;;111.95;43.40;;;;;;;6.99;100.00;102476.97;8339238;28;21054;-63
2022/01/22 17:59:08;;;;;;;106.50;40.92;;;;;;;6.96;100.00;102487.00;8331110;28;20051;-63
2022/01/22 18:03:10;;;;;;;96.50;37.88;;;;;;;6.98;100.00;102477.91;8310386;28;20049;-63
2022/01/22 18:07:11;;;;;;;97.43;40.83;;;;;;;6.98;100.00;102480.59;8311038;28;20044;-63
2022/01/22 18:11:12;;;;;;;101.38;39.35;;;;;;;6.96;100.00;102495.94;8319992;28;20063;-63
2022/01/22 18:15:13;;;;;;;100.28;41.55;;;;;;;7.00;100.00;102493.97;8319699;28;20037;-63
2022/01/22 18:19:14;;;;;;;107.45;42.05;;;;;;;6.99;100.00;102493.13;8304597;28;20480;-63
2022/01/22 18:23:14;;;;;;;102.82;40.95;;;;;;;7.01;100.00;102507.34;8318634;28;20041;-63
2022/01/22 18:27:15;;;;;;;109.60;43.70;;;;;;;6.98;100.00;102510.16;8319158;28;20679;-63
2022/01/22 18:31:15;;;;;;;105.72;42.72;;;;;;;7.02;100.00;102509.06;8318006;28;20049;-63
2022/01/22 18:35:16;;;;;;;105.80;42.08;;;;;;;6.97;100.00;102511.13;8319010;28;20128;-63
2022/01/22 18:39:17;;;;;;;101.03;42.65;;;;;;;6.98;100.00;102510.16;8329533;28;20038;-63
2022/01/22 18:43:21;;;;;;;97.53;41.53;;;;;;;7.01;100.00;102514.53;8314824;28;20045;-63
2022/01/22 18:47:22;;;;;;;101.97;42.95;;;;;;;6.99;100.00;102525.38;8307272;28;20504;-63
2022/01/22 18:51:24;;;;;;;106.47;42.88;;;;;;;6.97;100.00;102521.88;8319078;28;20087;-63
2022/01/22 18:55:25;;;;;;;102.00;42.75;;;;;;;6.96;100.00;102520.13;8300701;28;20049;-63
2022/01/22 18:59:25;;;;;;;103.72;41.97;;;;;;;6.99;100.00;102509.25;8313349;28;20046;-63
2022/01/22 19:03:26;;;;;;;101.45;42.15;;;;;;;7.01;100.00;102506.47;8317521;28;20131;-63
2022/01/22 19:07:31;;;;;;;100.75;40.88;;;;;;;6.95;100.00;102513.00;8318320;28;20045;-63
2022/01/22 19:11:32;;;;;;;106.05;43.17;;;;;;;6.96;100.00;102511.19;8317415;28;20493;-63
2022/01/22 19:15:32;;;;;;;105.80;41.80;;;;;;;6.98;100.00;102512.84;8318056;28;20091;-63
2022/01/22 19:19:33;;;;;;;100.55;40.72;;;;;;;6.96;100.00;102506.69;8303965;28;20065;-63
2022/01/22 19:24:10;;;;;;;103.93;42.53;;;;;;;6.96;100.00;102506.69;8316609;28;20029;-63
2022/01/22 19:28:01;;;;;;;101.38;42.60;;;;;;;6.91;100.00;102500.63;8299583;28;20037;-63
2022/01/22 19:32:02;;;;;;;101.05;42.88;;;;;;;6.92;100.00;102496.16;8310582;28;20049;-63
2022/01/22 19:36:04;;;;;;;114.68;42.65;;;;;;;6.91;100.00;102484.50;8311483;28;20045;-63
2022/01/22 19:40:06;;;;;;;101.45;42.85;;;;;;;6.93;100.00;102493.38;8296742;28;20409;-63
2022/01/22 19:44:16;;;;;;;106.40;43.50;;;;;;;6.99;100.00;102498.50;8307605;28;20045;-63
2022/01/22 19:48:18;;;;;;;103.53;41.60;;;;;;;6.98;100.00;102491.34;8310229;28;20034;-63
2022/01/22 19:52:18;;;;;;;92.00;40.25;;;;;;;6.96;100.00;102487.88;8306915;28;20334;-63
2022/01/22 19:56:19;;;;;;;100.18;41.58;;;;;;;7.00;100.00;102497.53;8290766;28;20081;-63